createdAt,value
2023-01-02T00:01:49.085Z,113654.06
2023-01-02T00:04:17.869Z,113654.06
2023-01-02T00:06:46.296Z,113654.06
2023-01-02T00:09:15.425Z,113654.06
2023-01-02T00:11:45.457Z,113654.06
2023-01-02T00:14:14.371Z,113654.06
2023-01-02T00:16:42.801Z,113395.13
2023-01-02T00:19:11.326Z,113395.13
2023-01-02T00:21:39.983Z,113136.22
2023-01-02T00:24:09.583Z,112877.31
2023-01-02T00:26:38.067Z,112359.53
2023-01-02T00:29:08.173Z,112359.53
2023-01-02T00:31:37.068Z,112359.53
2023-01-02T00:34:05.608Z,112100.69
2023-01-02T00:36:34.385Z,112100.69
2023-01-02T00:39:02.941Z,112100.69
2023-01-02T00:41:31.385Z,112100.69
2023-01-02T00:43:59.825Z,112100.69
2023-01-02T00:46:29.993Z,112100.69
2023-01-02T00:48:58.691Z,111583.06
2023-01-02T00:51:27.444Z,111583.06
2023-01-02T00:53:55.861Z,111583.06
2023-01-02T00:56:24.427Z,111065.50
2023-01-02T00:58:52.861Z,110030.59
2023-01-02T01:01:21.521Z,108996.00
2023-01-02T01:03:51.523Z,107961.72
2023-01-02T01:06:21.702Z,105894.09
2023-01-02T01:08:50.413Z,104085.91
2023-01-02T01:11:19.002Z,99956.41
2023-01-02T01:13:48.145Z,99440.56
2023-01-02T01:16:19.021Z,97120.22
2023-01-02T01:18:48.697Z,95059.00
2023-01-02T01:21:21.133Z,90940.22
2023-01-02T01:23:52.414Z,88368.50
2023-01-02T01:26:22.492Z,87083.34
2023-01-02T01:28:53.244Z,85541.78
2023-01-02T01:31:22.438Z,84771.25
2023-01-02T01:33:51.748Z,85028.06
2023-01-02T01:36:26.126Z,84771.25
2023-01-02T01:38:54.617Z,84257.66
2023-01-02T01:41:25.859Z,84771.25
2023-01-02T01:43:57.954Z,85284.91
2023-01-02T01:46:32.595Z,86055.56
2023-01-02T01:49:07.259Z,87083.34
2023-01-02T01:51:42.693Z,88368.50
2023-01-02T01:54:16.150Z,89396.97
2023-01-02T01:56:49.231Z,90682.97
2023-01-02T01:59:18.808Z,91969.47
2023-01-02T02:01:50.804Z,92999.00
2023-01-02T02:04:23.561Z,94028.84
2023-01-02T02:06:54.532Z,95059.00
2023-01-02T02:09:28.766Z,96089.47
2023-01-02T02:11:57.291Z,97120.22
2023-01-02T02:14:25.913Z,97893.50
2023-01-02T02:17:02.028Z,98409.13
2023-01-02T02:19:57.981Z,98924.81
2023-01-02T02:22:50.766Z,99698.47
2023-01-02T02:25:55.051Z,99698.47
2023-01-02T02:28:57.666Z,99956.41
2023-01-02T02:31:35.606Z,100214.34
2023-01-02T02:34:14.455Z,99698.47
2023-01-02T02:36:55.005Z,99440.56
2023-01-02T02:39:39.266Z,99440.56
2023-01-02T02:42:17.887Z,99182.69
2023-01-02T02:44:56.462Z,99182.69
2023-01-02T02:47:36.730Z,99182.69
2023-01-02T02:50:12.423Z,99182.69
2023-01-02T02:52:47.955Z,98666.94
2023-01-02T02:55:21.600Z,98924.81
2023-01-02T02:57:53.026Z,99182.69
2023-01-02T03:00:24.383Z,99440.56
2023-01-02T03:02:54.360Z,98924.81
2023-01-02T03:05:30.778Z,98924.81
2023-01-02T03:08:07.388Z,98924.81
2023-01-02T03:10:48.426Z,98924.81
2023-01-02T03:13:27.844Z,98409.13
2023-01-02T03:16:06.126Z,98409.13
2023-01-02T03:18:48.442Z,98409.13
2023-01-02T03:21:27.968Z,98666.94
2023-01-02T03:24:03.964Z,99182.69
2023-01-02T03:26:35.012Z,99182.69
2023-01-02T03:29:08.398Z,99440.56
2023-01-02T03:31:41.949Z,99698.47
2023-01-02T03:34:15.058Z,99440.56
2023-01-02T03:36:48.035Z,99440.56
2023-01-02T03:39:19.452Z,99440.56
2023-01-02T03:41:54.924Z,99440.56
2023-01-02T03:44:25.649Z,99956.41
2023-01-02T03:47:01.367Z,100472.31
2023-01-02T03:49:36.107Z,100472.31
2023-01-02T03:52:04.764Z,100214.34
2023-01-02T03:54:33.774Z,100472.31
2023-01-02T03:57:06.251Z,100730.31
2023-01-02T03:59:40.914Z,100472.31
2023-01-02T04:02:14.949Z,100472.31
2023-01-02T04:04:51.429Z,100214.34
2023-01-02T04:07:29.762Z,99956.41
2023-01-02T04:10:00.150Z,99956.41
2023-01-02T04:12:31.305Z,99698.47
2023-01-02T04:15:02.128Z,99182.69
2023-01-02T04:17:33.335Z,98666.94
2023-01-02T04:20:06.648Z,97377.97
2023-01-02T04:22:45.802Z,97120.22
2023-01-02T04:25:17.284Z,96089.47
2023-01-02T04:27:52.162Z,95316.59
2023-01-02T04:30:21.222Z,93513.91
2023-01-02T04:32:50.653Z,91712.13
2023-01-02T04:35:23.748Z,90682.97
2023-01-02T04:37:52.671Z,89911.31
2023-01-02T04:40:26.723Z,88882.69
2023-01-02T04:42:55.341Z,88111.41
2023-01-02T04:45:24.128Z,87597.34
2023-01-02T04:47:52.545Z,87083.34
2023-01-02T04:50:23.068Z,86312.47
2023-01-02T04:52:51.915Z,86312.47
2023-01-02T04:55:20.650Z,86055.56
2023-01-02T04:57:49.227Z,85541.78
2023-01-02T05:00:18.287Z,84771.25
2023-01-02T05:02:47.024Z,84000.91
2023-01-02T05:05:15.584Z,82974.03
2023-01-02T05:07:45.683Z,81947.50
2023-01-02T05:10:14.223Z,81177.78
2023-01-02T05:12:42.874Z,80408.22
2023-01-02T05:15:13.354Z,79638.84
2023-01-02T05:17:43.398Z,79638.84
2023-01-02T05:20:14.163Z,79126.03
2023-01-02T05:22:57.806Z,79638.84
2023-01-02T05:25:27.853Z,79638.84
2023-01-02T05:27:56.854Z,79638.84
2023-01-02T05:30:27.205Z,79382.44
2023-01-02T05:32:55.961Z,79126.03
2023-01-02T05:35:30.185Z,79638.84
2023-01-02T05:38:01.362Z,79895.28
2023-01-02T05:40:32.650Z,80151.75
2023-01-02T05:43:02.280Z,80408.22
2023-01-02T05:45:32.403Z,80151.75
2023-01-02T05:48:00.938Z,79638.84
2023-01-02T05:50:29.727Z,79638.84
2023-01-02T05:52:58.253Z,79382.44
2023-01-02T05:55:26.732Z,80151.75
2023-01-02T05:57:59.459Z,80921.25
2023-01-02T06:00:28.628Z,81947.50
2023-01-02T06:02:57.238Z,82974.03
2023-01-02T06:05:25.741Z,84000.91
2023-01-02T06:07:54.728Z,84771.25
2023-01-02T06:10:23.656Z,85798.66
2023-01-02T06:12:52.452Z,87083.34
2023-01-02T06:15:23.306Z,88368.50
2023-01-02T06:17:52.366Z,89911.31
2023-01-02T06:20:20.960Z,91454.81
2023-01-02T06:22:49.420Z,92484.19
2023-01-02T06:25:18.149Z,93513.91
2023-01-02T06:27:46.613Z,95574.19
2023-01-02T06:30:15.249Z,96089.47
2023-01-02T06:32:45.272Z,96862.50
2023-01-02T06:35:14.084Z,97635.72
2023-01-02T06:37:45.044Z,98409.13
2023-01-02T06:40:13.913Z,99698.47
2023-01-02T06:42:44.683Z,100472.31
2023-01-02T06:45:13.305Z,100730.31
2023-01-02T06:47:41.862Z,101504.38
2023-01-02T06:50:12.045Z,102020.53
2023-01-02T06:52:40.536Z,102020.53
2023-01-02T06:55:09.491Z,102536.75
2023-01-02T06:57:38.098Z,102536.75
2023-01-02T07:00:07.815Z,103053.06
2023-01-02T07:02:36.380Z,103569.44
2023-01-02T07:05:05.233Z,103569.44
2023-01-02T07:07:35.043Z,104085.91
2023-01-02T07:10:03.960Z,104085.91
2023-01-02T07:12:32.547Z,104344.16
2023-01-02T07:15:01.091Z,104602.44
2023-01-02T07:17:30.091Z,104602.44
2023-01-02T07:20:01.980Z,104860.72
2023-01-02T07:22:31.138Z,105119.03
2023-01-02T07:25:02.128Z,105377.34
2023-01-02T07:27:31.141Z,105377.34
2023-01-02T07:29:59.776Z,105377.34
2023-01-02T07:32:28.417Z,105635.72
2023-01-02T07:34:57.065Z,105894.09
2023-01-02T07:37:25.532Z,105894.09
2023-01-02T07:39:54.211Z,105894.09
2023-01-02T07:42:24.251Z,105894.09
2023-01-02T07:44:52.758Z,105894.09
2023-01-02T07:47:21.555Z,106152.47
2023-01-02T07:49:50.175Z,106410.88
2023-01-02T07:52:18.658Z,101504.38
2023-01-02T07:54:47.119Z,103569.44
2023-01-02T07:57:15.879Z,104344.16
2023-01-02T07:59:47.234Z,105119.03
2023-01-02T08:02:15.938Z,104860.72
2023-01-02T08:04:44.506Z,104860.72
2023-01-02T08:07:12.911Z,104344.16
2023-01-02T08:09:41.425Z,104344.16
2023-01-02T08:12:09.872Z,103311.25
2023-01-02T08:14:38.535Z,102278.66
2023-01-02T08:17:08.906Z,100988.31
2023-01-02T08:19:37.550Z,100472.31
2023-01-02T08:22:06.555Z,99698.47
2023-01-02T08:24:35.170Z,98924.81
2023-01-02T08:27:03.815Z,99956.41
2023-01-02T08:29:32.326Z,99956.41
2023-01-02T08:32:01.465Z,100214.34
2023-01-02T08:34:32.269Z,100472.31
2023-01-02T08:37:00.945Z,100988.31
2023-01-02T08:39:30.451Z,101762.47
2023-01-02T08:41:59.531Z,102536.75
2023-01-02T08:44:28.264Z,103053.06
2023-01-02T08:46:57.186Z,102536.75
2023-01-02T08:49:25.803Z,103311.25
2023-01-02T08:51:56.189Z,103053.06
2023-01-02T08:54:25.051Z,103569.44
2023-01-02T08:56:53.722Z,103311.25
2023-01-02T08:59:25.144Z,101762.47
2023-01-02T09:01:54.582Z,101504.38
2023-01-02T09:04:23.212Z,101246.34
2023-01-02T09:06:51.919Z,100988.31
2023-01-02T09:09:22.197Z,101762.47
2023-01-02T09:11:52.836Z,101504.38
2023-01-02T09:14:23.098Z,101504.38
2023-01-02T09:16:52.684Z,101246.34
2023-01-02T09:19:21.434Z,100988.31
2023-01-02T09:21:50.147Z,100988.31
2023-01-02T09:24:19.724Z,100730.31
2023-01-02T09:26:49.972Z,100730.31
2023-01-02T09:29:18.875Z,100988.31
2023-01-02T09:31:47.933Z,101246.34
2023-01-02T09:34:16.942Z,101504.38
2023-01-02T09:36:47.672Z,101762.47
2023-01-02T09:39:16.521Z,101246.34
2023-01-02T09:41:49.481Z,100988.31
2023-01-02T09:44:23.457Z,100730.31
2023-01-02T09:46:57.933Z,101762.47
2023-01-02T09:49:30.783Z,100988.31
2023-01-02T09:51:59.633Z,100988.31
2023-01-02T09:54:30.055Z,100472.31
2023-01-02T09:57:26.043Z,100472.31
2023-01-02T10:00:03.488Z,99698.47
2023-01-02T10:02:49.484Z,99698.47
2023-01-02T10:06:07.352Z,100472.31
2023-01-02T10:08:48.136Z,100214.34
2023-01-02T10:11:28.769Z,99698.47
2023-01-02T10:14:18.876Z,99440.56
2023-01-02T10:16:54.259Z,99182.69
2023-01-02T10:19:28.862Z,99698.47
2023-01-02T10:22:00.372Z,98409.13
2023-01-02T10:24:39.117Z,97377.97
2023-01-02T10:27:14.529Z,98151.31
2023-01-02T10:29:49.441Z,97120.22
2023-01-02T10:32:23.148Z,97635.72
2023-01-02T10:35:05.452Z,97120.22
2023-01-02T10:37:35.370Z,95831.81
2023-01-02T10:40:04.823Z,96089.47
2023-01-02T10:42:35.140Z,94543.91
2023-01-02T10:45:05.167Z,92741.59
2023-01-02T10:47:37.932Z,91712.13
2023-01-02T10:50:08.998Z,89396.97
2023-01-02T10:52:44.821Z,89396.97
2023-01-02T10:55:13.496Z,88882.69
2023-01-02T10:57:44.682Z,88882.69
2023-01-02T11:00:29.032Z,84771.25
2023-01-02T11:03:01.330Z,85541.78
2023-01-02T11:05:32.243Z,84514.44
2023-01-02T11:08:07.688Z,83487.44
2023-01-02T11:10:38.780Z,85284.91
2023-01-02T11:13:13.258Z,83487.44
2023-01-02T11:15:54.224Z,82974.03
2023-01-02T11:18:27.280Z,83230.72
2023-01-02T11:21:04.190Z,85541.78
2023-01-02T11:23:39.967Z,84771.25
2023-01-02T11:26:20.789Z,84257.66
2023-01-02T11:28:51.959Z,84514.44
2023-01-02T11:31:23.047Z,85541.78
2023-01-02T11:33:53.227Z,86826.34
2023-01-02T11:36:21.921Z,85541.78
2023-01-02T11:38:51.971Z,87597.34
2023-01-02T11:41:47.522Z,87854.38
2023-01-02T11:44:20.948Z,86826.34
2023-01-02T11:46:50.084Z,83487.44
2023-01-02T11:49:22.683Z,85798.66
2023-01-02T11:51:58.010Z,84514.44
2023-01-02T11:54:38.194Z,81434.31
2023-01-02T11:57:18.746Z,78356.94
2023-01-02T11:59:50.219Z,76819.28
2023-01-02T12:02:26.102Z,76050.72
2023-01-02T12:04:56.530Z,77588.03
2023-01-02T12:07:41.842Z,76563.09
2023-01-02T12:10:25.597Z,74002.03
2023-01-02T12:13:07.574Z,71954.59
2023-01-02T12:16:07.891Z,67835.41
2023-01-02T12:19:11.284Z,65093.38
2023-01-02T12:21:54.725Z,66402.25
2023-01-02T12:24:40.711Z,63332.38
2023-01-02T12:27:17.007Z,64445.09
2023-01-02T12:30:09.007Z,62628.63
2023-01-02T12:33:19.599Z,60366.84
2023-01-02T12:36:12.058Z,60333.00
2023-01-02T12:38:58.445Z,60275.22
2023-01-02T12:41:33.133Z,60653.72
2023-01-02T12:44:22.175Z,59701.56
2023-01-02T12:47:17.018Z,59992.34
2023-01-02T12:49:59.283Z,61275.38
2023-01-02T12:52:45.150Z,62277.81
2023-01-02T12:55:28.421Z,62752.22
2023-01-02T12:58:04.010Z,62656.53
2023-01-02T13:01:00.183Z,62014.72
2023-01-02T13:04:09.649Z,62588.75
2023-01-02T13:06:48.384Z,62650.56
2023-01-02T13:09:23.984Z,61685.88
2023-01-02T13:12:01.429Z,62748.22
2023-01-02T13:14:36.407Z,63152.94
2023-01-02T13:17:18.209Z,61990.78
2023-01-02T13:19:52.822Z,62465.16
2023-01-02T13:22:31.215Z,61353.09
2023-01-02T13:25:01.140Z,61801.47
2023-01-02T13:27:31.856Z,61911.06
2023-01-02T13:30:04.520Z,62283.78
2023-01-02T13:32:33.835Z,63789.00
2023-01-02T13:35:12.859Z,64574.75
2023-01-02T13:37:44.459Z,66118.88
2023-01-02T13:40:26.441Z,66635.75
2023-01-02T13:43:03.573Z,67156.69
2023-01-02T13:45:37.736Z,68408.44
2023-01-02T13:48:15.747Z,68881.72
2023-01-02T13:50:46.406Z,71698.75
2023-01-02T13:53:31.583Z,72722.25
2023-01-02T13:56:09.665Z,74514.09
2023-01-02T13:58:52.010Z,76306.91
2023-01-02T14:01:53.787Z,77331.78
2023-01-02T14:04:38.398Z,78100.63
2023-01-02T14:07:42.990Z,79126.03
2023-01-02T14:10:37.948Z,77331.78
2023-01-02T14:13:36.984Z,78356.94
2023-01-02T14:16:51.423Z,78100.63
2023-01-02T14:19:23.650Z,78356.94
2023-01-02T14:21:56.210Z,78613.28
2023-01-02T14:24:30.616Z,77075.53
2023-01-02T14:27:03.323Z,77588.03
2023-01-02T14:29:34.144Z,77588.03
2023-01-02T14:32:08.113Z,78100.63
2023-01-02T14:34:47.377Z,77588.03
2023-01-02T14:37:29.942Z,78613.28
2023-01-02T14:40:11.092Z,79126.03
2023-01-02T14:42:58.491Z,79895.28
2023-01-02T14:45:30.917Z,80664.72
2023-01-02T14:48:08.897Z,81177.78
2023-01-02T14:50:42.344Z,81947.50
2023-01-02T14:53:19.762Z,82460.72
2023-01-02T14:55:51.897Z,83230.72
2023-01-02T14:58:27.070Z,83744.16
2023-01-02T15:01:04.203Z,84000.91
2023-01-02T15:03:44.241Z,84514.44
2023-01-02T15:06:21.442Z,85028.06
2023-01-02T15:08:53.414Z,85541.78
2023-01-02T15:11:41.160Z,86055.56
2023-01-02T15:14:17.738Z,86312.47
2023-01-02T15:16:52.375Z,86826.34
2023-01-02T15:19:26.725Z,87597.34
2023-01-02T15:21:55.682Z,87854.38
2023-01-02T15:24:27.168Z,88368.50
2023-01-02T15:26:58.165Z,88882.69
2023-01-02T15:29:29.363Z,89139.81
2023-01-02T15:31:59.854Z,89396.97
2023-01-02T15:34:32.427Z,89911.31
2023-01-02T15:37:04.838Z,90425.72
2023-01-02T15:39:42.131Z,90682.97
2023-01-02T15:42:36.666Z,91197.50
2023-01-02T15:45:13.961Z,91454.81
2023-01-02T15:47:46.990Z,91712.13
2023-01-02T15:50:21.248Z,91969.47
2023-01-02T15:52:54.483Z,91969.47
2023-01-02T15:55:23.487Z,92484.19
2023-01-02T15:57:54.813Z,92741.59
2023-01-02T16:00:36.471Z,92999.00
2023-01-02T16:03:05.685Z,93256.44
2023-01-02T16:05:50.127Z,92999.00
2023-01-02T16:08:22.521Z,91969.47
2023-01-02T16:11:01.490Z,91712.13
2023-01-02T16:13:50.170Z,91712.13
2023-01-02T16:16:20.161Z,88625.56
2023-01-02T16:18:52.193Z,88625.56
2023-01-02T16:21:23.304Z,87340.31
2023-01-02T16:23:56.084Z,86569.41
2023-01-02T16:26:31.475Z,86826.34
2023-01-02T16:29:00.178Z,86569.41
2023-01-02T16:31:29.365Z,86826.34
2023-01-02T16:34:16.108Z,87083.34
2023-01-02T16:36:46.343Z,86826.34
2023-01-02T16:39:41.997Z,86826.34
2023-01-02T16:42:28.312Z,87083.34
2023-01-02T16:44:57.585Z,87340.31
2023-01-02T16:47:30.909Z,87854.38
2023-01-02T16:49:59.586Z,88625.56
2023-01-02T16:52:30.204Z,89139.81
2023-01-02T16:54:58.738Z,90168.50
2023-01-02T16:57:27.492Z,90940.22
2023-01-02T16:59:56.020Z,90940.22
2023-01-02T17:02:24.758Z,91454.81
2023-01-02T17:04:53.399Z,91712.13
2023-01-02T17:07:22.656Z,91712.13
2023-01-02T17:09:53.064Z,91712.13
2023-01-02T17:12:22.057Z,91712.13
2023-01-02T17:14:50.830Z,91969.47
2023-01-02T17:17:20.573Z,91969.47
2023-01-02T17:19:49.094Z,92484.19
2023-01-02T17:22:17.807Z,92484.19
2023-01-02T17:24:46.570Z,92484.19
2023-01-02T17:27:16.500Z,93771.38
2023-01-02T17:29:45.237Z,93771.38
2023-01-02T17:32:13.997Z,93771.38
2023-01-02T17:34:42.686Z,94028.84
2023-01-02T17:37:11.342Z,94028.84
2023-01-02T17:39:39.931Z,94801.44
2023-01-02T17:42:11.353Z,95316.59
2023-01-02T17:44:41.737Z,95059.00
2023-01-02T17:47:48.311Z,95316.59
2023-01-02T17:49:59.401Z,95059.00
2023-01-02T17:52:28.136Z,95574.19
2023-01-02T17:54:57.229Z,96347.13
2023-01-02T17:57:26.421Z,96862.50
2023-01-02T17:59:56.670Z,96862.50
2023-01-02T18:02:25.353Z,96604.81
2023-01-02T18:04:55.477Z,96347.13
2023-01-02T18:07:25.691Z,96089.47
2023-01-02T18:10:09.177Z,96089.47
2023-01-02T18:12:44.120Z,96089.47
2023-01-02T18:15:16.746Z,95831.81
2023-01-02T18:17:45.496Z,95831.81
2023-01-02T18:20:16.213Z,97120.22
2023-01-02T18:22:49.543Z,97635.72
2023-01-02T18:25:21.747Z,98151.31
2023-01-02T18:27:50.523Z,98924.81
2023-01-02T18:30:23.282Z,99182.69
2023-01-02T18:32:59.429Z,99698.47
2023-01-02T18:35:56.936Z,100214.34
2023-01-02T18:38:29.398Z,100730.31
2023-01-02T18:40:57.993Z,101246.34
2023-01-02T18:43:29.724Z,100988.31
2023-01-02T18:46:11.048Z,100988.31
2023-01-02T18:48:40.837Z,100988.31
2023-01-02T18:51:15.280Z,101504.38
2023-01-02T18:53:50.432Z,101762.47
2023-01-02T18:56:24.410Z,102020.53
2023-01-02T18:59:01.189Z,101762.47
2023-01-02T19:01:35.088Z,102020.53
2023-01-02T19:04:27.286Z,102020.53
2023-01-02T19:06:59.354Z,102278.66
2023-01-02T19:09:32.051Z,102536.75
2023-01-02T19:12:21.073Z,102794.91
2023-01-02T19:14:57.496Z,102794.91
2023-01-02T19:17:29.549Z,102794.91
2023-01-02T19:19:59.379Z,102794.91
2023-01-02T19:22:34.172Z,102794.91
2023-01-02T19:25:06.025Z,102794.91
2023-01-02T19:27:37.356Z,102536.75
2023-01-02T19:30:10.614Z,102794.91
2023-01-02T19:32:42.553Z,102794.91
2023-01-02T19:35:54.497Z,102536.75
2023-01-02T19:38:28.590Z,102278.66
2023-01-02T19:40:59.184Z,101762.47
2023-01-02T19:43:28.468Z,101504.38
2023-01-02T19:45:57.352Z,100730.31
2023-01-02T19:48:27.237Z,100730.31
2023-01-02T19:50:55.809Z,101246.34
2023-01-02T19:53:24.408Z,100214.34
2023-01-02T19:55:53.031Z,99956.41
2023-01-02T19:58:21.766Z,99440.56
2023-01-02T20:00:50.486Z,99182.69
2023-01-02T20:03:19.122Z,99698.47
2023-01-02T20:05:49.944Z,98924.81
2023-01-02T20:08:19.426Z,98924.81
2023-01-02T20:10:48.173Z,98151.31
2023-01-02T20:13:17.088Z,97893.50
2023-01-02T20:15:46.005Z,96347.13
2023-01-02T20:18:18.844Z,95574.19
2023-01-02T20:20:48.932Z,94543.91
2023-01-02T20:23:17.890Z,94543.91
2023-01-02T20:25:48.073Z,94286.38
2023-01-02T20:28:16.813Z,94028.84
2023-01-02T20:30:46.920Z,94028.84
2023-01-02T20:33:15.612Z,93771.38
2023-01-02T20:35:44.092Z,92741.59
2023-01-02T20:38:14.056Z,92226.81
2023-01-02T20:40:42.955Z,92226.81
2023-01-02T20:43:11.634Z,92999.00
2023-01-02T20:45:40.250Z,93256.44
2023-01-02T20:48:08.882Z,93771.38
2023-01-02T20:50:37.601Z,94543.91
2023-01-02T20:53:07.855Z,95059.00
2023-01-02T20:55:40.190Z,95574.19
2023-01-02T20:58:09.028Z,95316.59
2023-01-02T21:00:38.116Z,95574.19
2023-01-02T21:03:07.192Z,95831.81
2023-01-02T21:05:36.582Z,95831.81
2023-01-02T21:08:05.808Z,96604.81
2023-01-02T21:10:34.975Z,96347.13
2023-01-02T21:13:12.113Z,96347.13
2023-01-02T21:15:51.996Z,96347.13
2023-01-02T21:18:24.835Z,95831.81
2023-01-02T21:20:55.812Z,95831.81
2023-01-02T21:23:27.078Z,96089.47
2023-01-02T21:25:56.170Z,96347.13
2023-01-02T21:28:26.980Z,95831.81
2023-01-02T21:30:56.131Z,96347.13
2023-01-02T21:33:26.740Z,96089.47
2023-01-02T21:35:57.565Z,95574.19
2023-01-02T21:38:27.616Z,95316.59
2023-01-02T21:41:17.692Z,95059.00
2023-01-02T21:43:48.535Z,95316.59
2023-01-02T21:46:17.519Z,95059.00
2023-01-02T21:48:46.478Z,95316.59
2023-01-02T21:51:15.330Z,95316.59
2023-01-02T21:53:44.649Z,95059.00
2023-01-02T21:56:14.213Z,95316.59
2023-01-02T21:58:43.469Z,94801.44
2023-01-02T22:01:14.371Z,94801.44
2023-01-02T22:03:43.330Z,94543.91
2023-01-02T22:06:11.979Z,95059.00
2023-01-02T22:08:40.909Z,94801.44
2023-01-02T22:11:27.333Z,95059.00
2023-01-02T22:13:56.337Z,94801.44
2023-01-02T22:16:27.667Z,94543.91
2023-01-02T22:18:56.576Z,95316.59
2023-01-02T22:21:25.615Z,95831.81
2023-01-02T22:23:54.496Z,96089.47
2023-01-02T22:26:23.331Z,96089.47
2023-01-02T22:28:52.258Z,95574.19
2023-01-02T22:31:21.267Z,95316.59
2023-01-02T22:33:51.903Z,95059.00
2023-01-02T22:36:20.992Z,95574.19
2023-01-02T22:39:26.038Z,95574.19
2023-01-02T22:41:43.783Z,95316.59
2023-01-02T22:44:16.318Z,95059.00
2023-01-02T22:46:49.116Z,95574.19
2023-01-02T22:49:22.294Z,95831.81
2023-01-02T22:52:08.652Z,95831.81
2023-01-02T22:54:37.667Z,95316.59
2023-01-02T22:57:11.113Z,95059.00
2023-01-02T22:59:40.595Z,94801.44
2023-01-02T23:02:15.064Z,94286.38
2023-01-02T23:04:45.601Z,93513.91
2023-01-02T23:07:24.368Z,93256.44
2023-01-02T23:09:53.468Z,93513.91
2023-01-02T23:12:21.936Z,92484.19
2023-01-02T23:14:50.868Z,92484.19
2023-01-02T23:17:37.787Z,92741.59
2023-01-02T23:20:09.379Z,91712.13
2023-01-02T23:22:39.143Z,91969.47
2023-01-02T23:25:08.754Z,91454.81
2023-01-02T23:27:37.593Z,91712.13
2023-01-02T23:30:07.673Z,91969.47
2023-01-02T23:32:36.115Z,91454.81
2023-01-02T23:35:05.592Z,90940.22
2023-01-02T23:37:35.616Z,90682.97
2023-01-02T23:40:04.199Z,91197.50
2023-01-02T23:42:32.647Z,91197.50
2023-01-02T23:45:03.273Z,90682.97
2023-01-02T23:47:32.231Z,90425.72
2023-01-02T23:50:00.761Z,90682.97
2023-01-02T23:52:29.227Z,90425.72
2023-01-02T23:54:59.476Z,89911.31
2023-01-02T23:57:27.998Z,89911.31
2023-01-02T23:59:56.542Z,90425.72
